< Typhoon 197102 1971 Season Typhoon 197104 >
Typhoon 197103 (VERA)
General InformationTrack Information on Google Maps || Disaster Info.ResourceGoogle EarthGE AnimationAtom FeedGeoJSON
Detalied Best Track (Time Zone = UTC)
Year Month Day Hour Lat. Long. Pressure (hPa) Wind (kt) Class Image Chart
1971 4 6 06 7.1 151.0 1004 0 2 -- Chart
1971 4 6 12 7.9 149.9 1004 0 2 -- Chart
1971 4 6 18 8.5 148.7 1004 0 2 -- Chart
1971 4 7 00 9.2 147.5 1002 0 2 -- Chart
1971 4 7 06 9.6 146.1 1002 0 2 -- Chart
1971 4 7 12 9.9 144.8 1002 0 2 -- Chart
1971 4 7 18 10.0 143.5 1002 0 2 -- Chart
1971 4 8 00 10.0 142.8 1002 0 2 -- Chart
1971 4 8 06 10.0 142.3 1002 0 2 -- Chart
1971 4 8 12 10.0 141.8 1002 0 2 -- Chart
1971 4 8 18 10.2 140.8 1002 0 2 -- Chart
1971 4 9 00 10.5 140.0 1000 0 2 -- Chart
1971 4 9 06 10.9 139.3 1000 0 2 -- Chart
1971 4 9 12 11.4 139.0 1000 0 2 -- Chart
1971 4 9 18 11.7 138.5 1000 0 2 -- Chart
1971 4 10 00 11.8 138.1 998 0 2 -- Chart
1971 4 10 06 12.1 137.8 998 0 2 -- Chart
1971 4 10 12 12.4 137.5 998 0 2 -- Chart
1971 4 10 18 12.6 137.2 1000 0 2 -- Chart
1971 4 11 00 12.8 136.9 1000 0 2 -- Chart
1971 4 11 06 12.9 136.4 998 0 2 -- Chart
1971 4 11 12 12.9 135.7 998 0 2 -- Chart
1971 4 11 18 12.9 135.1 996 0 2 -- Chart
1971 4 12 00 13.0 134.3 994 0 9 -- Chart
1971 4 12 06 13.3 133.3 990 0 9 -- Chart
1971 4 12 12 13.7 132.8 985 0 9 -- Chart
1971 4 12 18 14.1 132.2 990 0 9 -- Chart
1971 4 13 00 14.4 131.6 990 0 9 -- Chart
1971 4 13 06 15.0 131.0 985 0 9 -- Chart
1971 4 13 12 15.7 130.4 980 0 9 -- Chart
1971 4 13 18 16.3 129.5 980 0 9 -- Chart
1971 4 14 00 16.7 128.6 975 0 9 -- Chart
1971 4 14 06 17.3 128.0 970 0 9 -- Chart
1971 4 14 12 17.8 127.4 970 0 9 -- Chart
1971 4 14 18 18.0 126.9 965 0 9 -- Chart
1971 4 15 00 18.0 126.5 965 0 9 -- Chart
1971 4 15 06 18.1 125.9 965 0 9 -- Chart
1971 4 15 12 18.2 125.6 965 0 9 -- Chart
1971 4 15 18 18.8 125.7 965 0 9 -- Chart
1971 4 16 00 19.1 125.9 970 0 9 -- Chart
1971 4 16 06 20.0 126.3 970 0 9 -- Chart
1971 4 16 12 20.7 126.4 975 0 9 -- Chart
1971 4 16 18 21.6 126.7 980 0 9 -- Chart
1971 4 17 00 22.3 127.2 985 0 9 -- Chart
1971 4 17 06 23.1 127.9 985 0 9 -- Chart
1971 4 17 12 24.4 129.3 985 0 9 -- Chart
1971 4 17 18 25.2 131.0 995 0 9 -- Chart
1971 4 18 00 25.8 132.0 995 0 9 -- Chart
1971 4 18 06 26.1 133.1 998 0 9 -- Chart
1971 4 18 12 26.4 134.6 998 0 9 -- Chart
1971 4 18 18 26.6 137.0 1000 0 9 -- Chart
1971 4 19 00 27.0 139.5 1000 0 9 -- Chart
1971 4 19 06 28.0 142.0 1002 0 6 -- Chart
1971 4 19 12 29.1 144.9 1002 0 6 -- Chart
1971 4 19 18 30.7 147.7 1002 0 6 -- Chart
1971 4 20 00 32.0 150.9 1002 0 6 -- Chart
1971 4 20 06 34.1 154.7 1002 0 6 -- Chart
1971 4 20 12 35.8 157.9 1002 0 6 -- Chart
1971 4 20 18 37.2 160.9 1002 0 6 -- Chart
1971 4 21 00 38.8 164.1 1000 0 6 -- Chart
1971 4 21 06 40.5 167.3 994 0 6 -- Chart
1971 4 21 12 42.0 170.0 990 0 6 -- Chart
1971 4 21 18 43.2 173.0 988 0 6 -- Chart
1971 4 22 00 43.9 175.1 988 0 6 -- Chart
1971 4 22 06 44.5 177.9 986 0 6 -- Chart
Japan Meteorological Agency Best Track Data | Correction Date : 1989-06-01
< Typhoon 197102 1971 Season Typhoon 197104 >

Help